Terminal Aerodrome Forecast
Issued by NWS

Home | Current Version | Previous Version | Text Only | Print | Product List | Glossary On
Versions: 1 2 3 4 5 6 7 8 9 10 11 12 13
000
FTUS43 KICT 241720
TAFCNU
TAF
KCNU 241720Z 2418/2518 18023KT P6SM FEW250
     FM250000 18015KT P6SM FEW250
     FM250300 16009KT P6SM SCT250
     FM250400 16009KT P6SM SCT250 WS020/19040KT
     FM251300 16018KT P6SM BKN110
     FM251700 18024G34KT P6SM BKN100=

USA.gov is the U.S. government's official web portal to all federal, state and local government web resources and services.